Time;durP1;ratioP1;P1;durP2;ratioP2;P2;SDS_P1;SDS_P2;PMS_P1;PMS_P2;Temp;Humidity;BMP_temperature;BMP_pressure;BME280_temperature;BME280_humidity;BME280_pressure;Samples;Min_cycle;Max_cycle;Signal;HPM_P1;HPM_P2
2022/08/21 00:01:20;;;;;;;3.60;2.45;;;15.80;99.90;;;;;;5129389;27;20038;-77
2022/08/21 00:03:46;;;;;;;5.22;2.50;;;15.80;99.90;;;;;;5134089;27;20042;-77
2022/08/21 00:06:11;;;;;;;2.60;2.28;;;15.80;99.90;;;;;;5128034;27;20535;-78
2022/08/21 00:08:37;;;;;;;8.18;3.92;;;15.80;99.90;;;;;;5119346;27;20043;-78
2022/08/21 00:11:05;;;;;;;4.65;2.63;;;15.80;99.90;;;;;;5131242;27;20099;-78
2022/08/21 00:13:31;;;;;;;5.20;2.97;;;15.70;99.90;;;;;;5134634;27;20039;-76
2022/08/21 00:15:58;;;;;;;6.40;2.85;;;15.40;99.90;;;;;;5137658;27;20105;-78
2022/08/21 00:18:24;;;;;;;5.32;3.15;;;15.70;99.90;;;;;;5139053;27;20157;-79
2022/08/21 00:20:50;;;;;;;4.03;2.53;;;15.60;99.90;;;;;;5134520;27;20078;-76
2022/08/21 00:23:17;;;;;;;6.60;3.20;;;15.50;99.90;;;;;;5090302;27;20122;-77
2022/08/21 00:25:44;;;;;;;5.72;2.55;;;15.40;99.90;;;;;;5127997;27;20115;-78
2022/08/21 00:28:11;;;;;;;25.80;3.35;;;15.50;99.90;;;;;;5134634;27;20039;-77
2022/08/21 00:30:38;;;;;;;6.15;3.25;;;15.40;99.90;;;;;;5135687;27;20302;-77
2022/08/21 00:33:04;;;;;;;4.55;2.53;;;15.40;99.90;;;;;;5138131;27;20159;-75
2022/08/21 00:35:33;;;;;;;4.13;2.95;;;15.40;99.90;;;;;;5120126;27;20039;-76
2022/08/21 00:37:59;;;;;;;7.68;3.53;;;15.40;99.90;;;;;;5131831;27;20050;-78
2022/08/21 00:40:33;;;;;;;4.40;3.00;;;15.30;99.90;;;;;;5136958;27;20598;-79
2022/08/21 00:43:01;;;;;;;5.22;2.95;;;15.30;99.90;;;;;;5131828;27;20051;-77
2022/08/21 00:45:27;;;;;;;4.35;2.72;;;15.30;99.90;;;;;;5139143;27;20564;-78
2022/08/21 00:47:54;;;;;;;2.65;2.38;;;15.20;99.90;;;;;;5134862;27;20127;-78
2022/08/21 00:50:20;;;;;;;3.00;2.70;;;15.10;99.90;;;;;;5116543;27;20298;-76
2022/08/21 00:52:46;;;;;;;5.28;2.88;;;15.10;99.90;;;;;;5130245;27;20539;-79
2022/08/21 00:55:13;;;;;;;7.05;2.95;;;15.00;99.90;;;;;;5117851;27;20379;-78
2022/08/21 00:57:46;;;;;;;4.22;2.75;;;15.00;99.90;;;;;;5138611;27;20134;-79
2022/08/21 01:00:16;;;;;;;4.63;2.95;;;14.90;99.90;;;;;;5137366;27;20070;-78
2022/08/21 01:02:43;;;;;;;5.28;3.60;;;14.90;99.90;;;;;;5138076;27;20038;-79
2022/08/21 01:05:09;;;;;;;3.58;2.60;;;14.90;99.90;;;;;;5138634;27;20039;-78
2022/08/21 01:07:35;;;;;;;5.25;2.72;;;14.80;99.90;;;;;;5131282;27;20447;-77
2022/08/21 01:10:02;;;;;;;7.75;3.20;;;14.80;99.90;;;;;;5116888;27;20051;-77
2022/08/21 01:12:28;;;;;;;4.35;2.85;;;14.80;99.90;;;;;;5136262;27;20117;-78
2022/08/21 01:14:53;;;;;;;4.40;3.25;;;14.80;99.90;;;;;;5139249;27;20042;-79
2022/08/21 01:17:21;;;;;;;7.53;2.88;;;14.80;99.90;;;;;;5137184;27;20073;-79
2022/08/21 01:19:46;;;;;;;3.70;3.08;;;14.70;99.90;;;;;;5137441;27;20043;-78
2022/08/21 01:22:13;;;;;;;4.65;3.70;;;14.80;99.90;;;;;;5135742;27;20057;-79
2022/08/21 01:24:39;;;;;;;3.60;3.15;;;14.70;99.90;;;;;;5133066;27;20147;-79
2022/08/21 01:27:05;;;;;;;4.65;3.10;;;14.70;99.90;;;;;;5135641;27;20050;-79
2022/08/21 01:29:43;;;;;;;4.88;2.65;;;14.60;99.90;;;;;;5138031;27;20841;-77
2022/08/21 01:32:12;;;;;;;3.90;2.75;;;14.60;99.90;;;;;;5135505;27;20047;-77
2022/08/21 01:34:41;;;;;;;7.05;2.92;;;14.60;99.90;;;;;;5133895;27;20481;-77
2022/08/21 01:37:07;;;;;;;5.55;2.92;;;14.50;99.90;;;;;;5133486;27;20043;-79
2022/08/21 01:39:34;;;;;;;5.68;3.10;;;14.50;99.90;;;;;;5138085;27;20046;-79
2022/08/21 01:42:00;;;;;;;5.22;2.67;;;14.50;99.90;;;;;;5131227;27;20053;-76
2022/08/21 01:44:26;;;;;;;6.00;3.22;;;14.50;99.90;;;;;;5127804;27;20047;-77
2022/08/21 01:46:53;;;;;;;7.90;2.97;;;14.50;99.90;;;;;;5137210;27;20042;-77
2022/08/21 01:49:19;;;;;;;4.57;3.08;;;14.50;99.90;;;;;;5133770;27;20922;-76
2022/08/21 01:51:45;;;;;;;7.68;3.70;;;14.40;99.90;;;;;;5131597;27;20047;-78
2022/08/21 01:54:11;;;;;;;3.97;3.45;;;14.40;99.90;;;;;;5136705;27;20127;-76
2022/08/21 01:56:43;;;;;;;6.47;4.68;;;14.40;99.90;;;;;;5137085;27;20153;-78
2022/08/21 01:59:09;;;;;;;5.28;3.22;;;14.30;99.90;;;;;;5132841;27;20121;-78
2022/08/21 02:01:36;;;;;;;5.82;3.63;;;14.30;99.90;;;;;;5133075;27;20049;-77
2022/08/21 02:04:02;;;;;;;6.78;3.28;;;14.20;99.90;;;;;;5136974;27;20051;-79
2022/08/21 02:06:28;;;;;;;4.60;3.03;;;14.20;99.90;;;;;;5133063;27;20104;-78
2022/08/21 02:08:54;;;;;;;12.80;4.45;;;14.10;99.90;;;;;;5136962;27;20059;-79
2022/08/21 02:11:20;;;;;;;4.28;3.78;;;14.10;99.90;;;;;;5137930;27;20046;-78
2022/08/21 02:13:46;;;;;;;4.68;3.58;;;14.10;99.90;;;;;;5132089;27;20107;-78
2022/08/21 02:16:12;;;;;;;9.20;4.18;;;14.10;99.90;;;;;;5113692;27;20499;-78
2022/08/21 02:18:38;;;;;;;4.38;3.97;;;14.10;99.90;;;;;;5137009;27;20565;-77
2022/08/21 02:21:05;;;;;;;7.32;4.25;;;14.10;99.90;;;;;;5133265;27;20043;-79
2022/08/21 02:23:32;;;;;;;6.55;3.92;;;14.10;99.90;;;;;;5128993;27;20466;-76
2022/08/21 02:25:59;;;;;;;6.38;3.70;;;14.10;99.90;;;;;;5132813;27;20054;-78
2022/08/21 02:28:25;;;;;;;6.97;4.18;;;14.00;99.90;;;;;;5137059;27;20157;-78
2022/08/21 02:30:51;;;;;;;4.28;3.88;;;14.10;99.90;;;;;;5136574;27;20457;-76
2022/08/21 02:33:18;;;;;;;6.78;4.28;;;14.10;99.90;;;;;;5134311;27;20192;-75
2022/08/21 02:35:45;;;;;;;5.95;4.63;;;14.00;99.90;;;;;;5127029;27;20043;-79
2022/08/21 02:38:15;;;;;;;7.47;4.38;;;14.00;99.90;;;;;;5129346;27;20153;-76
2022/08/21 02:40:45;;;;;;;14.35;5.07;;;14.00;99.90;;;;;;5133846;27;20084;-76
2022/08/21 02:43:11;;;;;;;5.75;4.50;;;14.00;99.90;;;;;;5136454;27;20053;-76
2022/08/21 02:45:38;;;;;;;8.75;4.97;;;14.00;99.90;;;;;;5115811;27;20039;-79
2022/08/21 02:48:08;;;;;;;9.65;5.82;;;13.90;99.90;;;;;;5134939;27;20085;-79
2022/08/21 02:50:47;;;;;;;5.82;4.43;;;14.00;99.90;;;;;;5132236;27;20058;-78
2022/08/21 02:53:16;;;;;;;7.05;5.18;;;14.00;99.90;;;;;;5117876;27;20815;-78
2022/08/21 02:55:47;;;;;;;8.80;5.40;;;13.90;99.90;;;;;;5134777;27;20045;-76
2022/08/21 02:58:14;;;;;;;9.52;4.43;;;14.00;99.90;;;;;;5134853;27;20043;-78
2022/08/21 03:00:41;;;;;;;10.60;6.07;;;13.90;99.90;;;;;;5132415;27;20038;-78
2022/08/21 03:03:07;;;;;;;7.53;5.18;;;13.90;99.90;;;;;;5135442;27;20051;-76
2022/08/21 03:05:34;;;;;;;9.25;5.72;;;13.90;99.90;;;;;;5131493;27;20065;-79
2022/08/21 03:08:03;;;;;;;5.80;4.78;;;13.90;99.90;;;;;;5111240;27;20072;-77
2022/08/21 03:10:30;;;;;;;7.63;5.45;;;13.90;99.90;;;;;;5134886;27;20038;-76
2022/08/21 03:12:56;;;;;;;7.00;5.35;;;13.90;99.90;;;;;;5132248;27;20046;-76
2022/08/21 03:15:23;;;;;;;8.13;6.55;;;13.90;99.90;;;;;;5134768;27;20446;-77
2022/08/21 03:17:50;;;;;;;8.02;5.30;;;13.90;99.90;;;;;;5134832;27;20047;-77
2022/08/21 03:20:18;;;;;;;8.07;5.22;;;13.90;99.90;;;;;;5133856;27;20933;-76
2022/08/21 03:22:44;;;;;;;7.28;5.35;;;13.90;99.90;;;;;;5131596;27;20298;-76
2022/08/21 03:25:10;;;;;;;9.43;5.55;;;13.90;99.90;;;;;;5132597;27;20055;-77
2022/08/21 03:27:36;;;;;;;6.53;5.13;;;13.90;99.90;;;;;;5133501;27;20050;-77
2022/08/21 03:30:05;;;;;;;7.57;5.20;;;13.80;99.90;;;;;;5135380;27;20114;-77
2022/08/21 03:32:31;;;;;;;6.88;5.72;;;13.80;99.90;;;;;;5134173;27;20415;-78
2022/08/21 03:34:57;;;;;;;7.80;5.22;;;13.80;99.90;;;;;;5130728;27;20103;-78
2022/08/21 03:37:24;;;;;;;8.70;6.13;;;13.80;99.90;;;;;;5125219;27;20081;-76
2022/08/21 03:39:50;;;;;;;10.15;5.60;;;13.80;99.90;;;;;;5133775;27;20046;-78
2022/08/21 03:42:17;;;;;;;10.93;6.60;;;13.80;99.90;;;;;;5129435;27;20051;-78
2022/08/21 03:44:42;;;;;;;7.95;6.10;;;13.80;99.90;;;;;;5125162;27;20157;-78
2022/08/21 03:47:09;;;;;;;9.00;6.35;;;13.80;99.90;;;;;;5132042;27;20047;-77
2022/08/21 03:49:35;;;;;;;8.20;5.57;;;13.80;99.90;;;;;;5130526;27;20769;-79
2022/08/21 03:52:03;;;;;;;7.43;5.95;;;13.80;99.90;;;;;;5131353;27;20047;-77
2022/08/21 03:54:29;;;;;;;9.95;6.10;;;13.70;99.90;;;;;;5132335;27;20035;-79
2022/08/21 03:56:55;;;;;;;6.57;5.03;;;13.70;99.90;;;;;;5131885;27;20050;-79
2022/08/21 03:59:20;;;;;;;7.07;5.40;;;13.70;99.90;;;;;;5133089;27;20214;-75
2022/08/21 04:01:59;;;;;;;8.35;5.38;;;13.70;99.90;;;;;;5128714;27;20054;-78
2022/08/21 04:04:26;;;;;;;7.47;6.40;;;13.70;99.90;;;;;;5129783;27;20265;-79
2022/08/21 04:06:51;;;;;;;7.82;5.53;;;13.70;99.90;;;;;;5133098;27;20043;-78
2022/08/21 04:09:18;;;;;;;9.63;6.35;;;13.60;99.90;;;;;;5132997;27;20057;-79
2022/08/21 04:11:45;;;;;;;9.50;6.28;;;13.60;99.90;;;;;;5130244;27;20046;-76
2022/08/21 04:14:12;;;;;;;7.68;6.60;;;13.60;99.90;;;;;;5127952;27;20054;-76
2022/08/21 04:16:38;;;;;;;9.13;5.80;;;13.60;99.90;;;;;;5129511;27;20125;-79
2022/08/21 04:19:03;;;;;;;8.50;6.43;;;13.60;99.90;;;;;;5131787;27;20043;-78
2022/08/21 04:21:30;;;;;;;10.00;7.10;;;13.60;99.90;;;;;;5110648;27;20814;-77
2022/08/21 04:23:56;;;;;;;11.68;6.03;;;13.60;99.90;;;;;;5129476;27;20064;-77
2022/08/21 04:26:22;;;;;;;8.88;5.43;;;13.70;99.90;;;;;;5113918;27;20050;-76
2022/08/21 04:28:47;;;;;;;9.40;6.00;;;13.60;99.90;;;;;;5131364;27;20367;-78
2022/08/21 04:31:13;;;;;;;9.45;6.07;;;13.60;99.90;;;;;;5126972;27;20915;-77
2022/08/21 04:33:39;;;;;;;7.95;5.78;;;13.60;99.90;;;;;;5129731;27;20076;-77
2022/08/21 04:36:06;;;;;;;9.82;5.93;;;13.60;99.90;;;;;;5129633;27;20054;-78
2022/08/21 04:38:32;;;;;;;6.30;5.45;;;13.60;99.90;;;;;;5131491;27;20662;-76
2022/08/21 04:40:58;;;;;;;9.38;5.88;;;13.60;99.90;;;;;;5131604;27;20796;-77
2022/08/21 04:43:24;;;;;;;7.75;5.95;;;13.60;99.90;;;;;;5127372;27;20042;-78
2022/08/21 04:45:51;;;;;;;8.45;5.35;;;13.70;99.90;;;;;;5127730;27;20142;-78
2022/08/21 04:48:20;;;;;;;9.02;6.40;;;13.70;99.90;;;;;;5132564;27;20131;-76
2022/08/21 04:50:52;;;;;;;8.27;5.55;;;13.70;99.90;;;;;;5124216;27;20130;-76
2022/08/21 04:53:46;;;;;;;8.82;5.93;;;13.70;99.90;;;;;;5133246;27;20050;-79
2022/08/21 04:56:16;;;;;;;10.18;6.38;;;13.70;99.90;;;;;;5091230;27;20242;-78
2022/08/21 04:58:42;;;;;;;8.43;5.95;;;13.70;99.90;;;;;;5124999;27;20054;-78
2022/08/21 05:01:13;;;;;;;8.52;5.63;;;13.70;99.90;;;;;;5131315;27;20054;-78
2022/08/21 05:03:40;;;;;;;6.07;5.32;;;13.80;99.90;;;;;;5131918;27;20115;-78
2022/08/21 05:06:09;;;;;;;6.40;5.57;;;13.80;99.90;;;;;;5129432;27;20042;-78
2022/08/21 05:08:36;;;;;;;12.45;7.00;;;13.80;99.90;;;;;;5130862;27;20039;-76
2022/08/21 05:11:04;;;;;;;8.02;5.10;;;13.90;99.90;;;;;;5126252;27;20062;-76
2022/08/21 05:13:30;;;;;;;9.23;6.15;;;13.90;99.90;;;;;;5130384;27;20035;-78
2022/08/21 05:15:56;;;;;;;9.80;6.28;;;13.90;99.90;;;;;;5131353;27;20038;-77
2022/08/21 05:18:21;;;;;;;10.88;5.80;;;14.20;99.90;;;;;;5131536;27;20034;-77
2022/08/21 05:20:47;;;;;;;8.07;5.43;;;14.00;99.90;;;;;;5134950;27;20080;-77
2022/08/21 05:23:14;;;;;;;7.05;5.97;;;14.10;99.90;;;;;;5127383;27;20043;-79
2022/08/21 05:25:40;;;;;;;10.88;7.25;;;14.10;99.90;;;;;;5130700;27;20047;-79
2022/08/21 05:28:06;;;;;;;8.65;5.47;;;14.10;99.90;;;;;;5112751;27;20483;-76
2022/08/21 05:30:33;;;;;;;9.30;6.07;;;14.20;99.90;;;;;;5134134;27;20118;-78
2022/08/21 05:33:00;;;;;;;7.38;5.88;;;14.20;99.90;;;;;;5129554;27;20641;-77
2022/08/21 05:35:26;;;;;;;9.02;6.63;;;14.30;99.90;;;;;;5129132;27;20043;-76
2022/08/21 05:37:52;;;;;;;11.75;6.90;;;14.30;99.90;;;;;;5131944;27;20043;-79
2022/08/21 05:40:18;;;;;;;7.95;5.95;;;14.40;99.90;;;;;;5113855;27;20046;-76
2022/08/21 05:42:44;;;;;;;8.05;5.97;;;14.50;99.90;;;;;;5131064;27;20248;-77
2022/08/21 05:45:10;;;;;;;13.77;5.95;;;14.60;99.90;;;;;;5129502;27;20033;-80
2022/08/21 05:47:36;;;;;;;9.75;6.00;;;14.60;99.90;;;;;;5129021;27;20055;-76
2022/08/21 05:50:02;;;;;;;9.65;5.43;;;14.70;99.90;;;;;;5130721;27;20119;-79
2022/08/21 05:52:27;;;;;;;7.90;5.28;;;14.80;99.90;;;;;;5133252;27;20572;-78
2022/08/21 05:54:53;;;;;;;10.23;6.22;;;14.90;99.90;;;;;;5127276;27;20053;-77
2022/08/21 05:57:20;;;;;;;7.03;5.38;;;14.90;99.90;;;;;;5130368;27;20049;-76
2022/08/21 05:59:46;;;;;;;10.18;6.07;;;15.00;99.90;;;;;;5125495;27;20149;-78
2022/08/21 06:02:12;;;;;;;11.02;6.32;;;15.10;99.90;;;;;;5131584;27;20766;-78
2022/08/21 06:04:38;;;;;;;9.57;5.60;;;15.20;99.90;;;;;;5130635;27;20038;-78
2022/08/21 06:07:05;;;;;;;7.07;5.20;;;15.30;99.90;;;;;;5134025;27;20214;-80
2022/08/21 06:09:30;;;;;;;6.78;5.90;;;15.40;99.90;;;;;;5130617;27;20050;-76
2022/08/21 06:11:56;;;;;;;7.95;5.65;;;15.40;99.90;;;;;;5129311;27;20108;-76
2022/08/21 06:14:22;;;;;;;7.60;5.25;;;15.50;99.90;;;;;;5130446;27;20085;-79
2022/08/21 06:16:48;;;;;;;8.77;5.70;;;15.60;99.90;;;;;;5130370;27;20118;-80
2022/08/21 06:19:13;;;;;;;7.10;4.88;;;15.80;99.90;;;;;;5111304;27;20157;-77
2022/08/21 06:21:39;;;;;;;11.00;5.15;;;15.80;99.90;;;;;;5129980;27;20096;-78
2022/08/21 06:24:06;;;;;;;10.30;4.53;;;15.90;99.90;;;;;;5126245;27;20063;-79
2022/08/21 06:26:33;;;;;;;8.35;4.32;;;16.00;99.90;;;;;;5108836;27;20544;-78
2022/08/21 06:28:58;;;;;;;8.32;4.82;;;16.10;99.90;;;;;;5129635;27;20079;-76
2022/08/21 06:31:26;;;;;;;10.18;4.93;;;16.20;99.90;;;;;;5127830;27;20046;-78
2022/08/21 06:33:52;;;;;;;8.55;4.63;;;16.40;99.90;;;;;;5125806;27;20042;-80
2022/08/21 06:36:20;;;;;;;8.80;4.63;;;16.50;99.90;;;;;;5132399;27;20046;-78
2022/08/21 06:38:45;;;;;;;10.45;4.50;;;16.60;99.90;;;;;;5123939;27;20049;-77
2022/08/21 06:41:11;;;;;;;7.45;4.72;;;16.70;99.90;;;;;;5128288;27;20047;-76
2022/08/21 06:43:37;;;;;;;6.40;4.07;;;16.90;99.90;;;;;;5111497;27;20074;-79
2022/08/21 06:46:03;;;;;;;8.13;4.90;;;17.00;99.90;;;;;;5127826;27;20070;-76
2022/08/21 06:48:31;;;;;;;10.00;4.60;;;17.10;99.90;;;;;;5130766;27;20043;-79
2022/08/21 06:50:59;;;;;;;10.90;4.22;;;17.20;99.90;;;;;;5110082;27;20388;-76
2022/08/21 06:53:24;;;;;;;7.43;4.45;;;17.40;99.90;;;;;;5104836;27;20127;-77
2022/08/21 06:55:50;;;;;;;8.10;4.38;;;17.50;99.90;;;;;;5110696;27;20545;-76
2022/08/21 06:58:16;;;;;;;8.20;4.03;;;17.70;99.90;;;;;;5132530;27;20552;-76
2022/08/21 07:00:45;;;;;;;5.78;3.28;;;17.80;99.90;;;;;;5132032;27;20046;-78
2022/08/21 07:03:30;;;;;;;15.23;3.60;;;18.00;99.90;;;;;;5125998;27;20230;-79
2022/08/21 07:05:57;;;;;;;8.68;3.50;;;18.20;99.90;;;;;;5127738;27;20818;-78
2022/08/21 07:08:23;;;;;;;5.40;3.45;;;19.10;99.90;;;;;;5128127;27;20050;-77
2022/08/21 07:10:49;;;;;;;5.53;2.90;;;20.60;99.90;;;;;;5129036;27;20046;-73
2022/08/21 07:13:15;;;;;;;4.88;2.50;;;21.90;99.90;;;;;;5124069;27;20150;-77
2022/08/21 07:15:41;;;;;;;7.28;3.17;;;23.10;99.90;;;;;;5130238;27;20042;-77
2022/08/21 07:18:07;;;;;;;9.80;3.92;;;24.40;99.90;;;;;;5135496;27;20595;-82
2022/08/21 07:20:33;;;;;;;5.60;2.53;;;25.10;99.90;;;;;;5132624;27;20054;-80
2022/08/21 07:23:21;;;;;;;5.53;2.35;;;25.70;99.90;;;;;;5135820;27;20057;-79
2022/08/21 07:25:47;;;;;;;6.22;2.42;;;25.90;99.20;;;;;;5110655;27;20070;-79
2022/08/21 07:28:12;;;;;;;6.68;2.88;;;26.50;97.50;;;;;;5116800;27;20224;-79
2022/08/21 07:30:38;;;;;;;5.95;2.15;;;27.10;98.90;;;;;;5109328;27;20058;-77
2022/08/21 07:33:04;;;;;;;4.65;2.20;;;27.30;95.40;;;;;;5130946;27;20050;-78
2022/08/21 07:35:31;;;;;;;11.13;3.45;;;27.40;96.40;;;;;;5118202;27;20123;-77
2022/08/21 07:37:56;;;;;;;6.43;2.50;;;27.20;95.40;;;;;;5127617;27;20057;-76
2022/08/21 07:40:22;;;;;;;6.07;2.15;;;27.40;94.50;;;;;;5122410;27;20047;-76
2022/08/21 07:42:51;;;;;;;5.05;2.33;;;27.80;93.10;;;;;;5123579;27;20780;-79
2022/08/21 07:45:19;;;;;;;3.47;2.08;;;27.60;93.20;;;;;;5133333;27;20078;-77
2022/08/21 07:47:45;;;;;;;4.82;1.92;;;27.90;93.10;;;;;;5108194;28;20134;-79
2022/08/21 07:50:12;;;;;;;5.30;2.08;;;27.70;91.50;;;;;;5129245;27;20046;-76
2022/08/21 07:52:38;;;;;;;7.25;2.85;;;27.50;91.80;;;;;;5115388;27;20172;-79
2022/08/21 07:55:04;;;;;;;7.05;3.50;;;27.70;91.60;;;;;;5119529;27;20043;-79
2022/08/21 07:57:30;;;;;;;2.03;1.77;;;27.90;91.30;;;;;;5115624;27;20054;-77
2022/08/21 07:59:56;;;;;;;7.25;2.67;;;28.40;91.00;;;;;;5114599;27;20043;-77
2022/08/21 08:02:24;;;;;;;3.17;1.92;;;28.20;87.80;;;;;;5122413;27;20050;-77
2022/08/21 08:04:50;;;;;;;5.65;2.53;;;28.80;89.30;;;;;;5100383;27;20736;-76
2022/08/21 08:07:16;;;;;;;7.35;2.22;;;29.00;89.40;;;;;;5123264;27;20051;-80
2022/08/21 08:09:42;;;;;;;4.32;2.50;;;28.90;87.70;;;;;;5129436;27;20545;-77
2022/08/21 08:12:07;;;;;;;5.85;2.47;;;29.00;86.30;;;;;;5125282;27;20047;-77
2022/08/21 08:14:33;;;;;;;9.00;3.25;;;28.60;87.40;;;;;;5112909;27;21043;-74
2022/08/21 08:16:59;;;;;;;3.95;2.22;;;28.10;81.80;;;;;;5123487;27;20126;-74
2022/08/21 08:19:25;;;;;;;5.55;2.78;;;28.60;86.70;;;;;;5128644;27;20058;-73
2022/08/21 08:21:50;;;;;;;4.90;3.20;;;28.80;85.90;;;;;;5117083;27;20050;-74
2022/08/21 08:24:16;;;;;;;4.72;2.53;;;29.20;85.30;;;;;;5132566;27;20051;-77
2022/08/21 08:26:42;;;;;;;5.97;2.95;;;29.00;83.80;;;;;;5135720;27;20121;-78
2022/08/21 08:29:07;;;;;;;7.95;2.55;;;28.60;83.00;;;;;;5119980;27;20146;-76
2022/08/21 08:31:33;;;;;;;4.78;2.30;;;28.90;83.80;;;;;;5122314;27;20770;-77
2022/08/21 08:33:59;;;;;;;5.03;2.40;;;29.40;84.20;;;;;;5123354;27;20767;-77
2022/08/21 08:36:34;;;;;;;3.92;2.80;;;29.50;83.90;;;;;;5122067;27;20979;-77
2022/08/21 08:39:00;;;;;;;4.95;1.98;;;29.60;79.30;;;;;;5122074;27;20115;-77
2022/08/21 08:41:26;;;;;;;4.03;2.40;;;30.10;81.30;;;;;;5122220;27;20054;-77
2022/08/21 08:43:54;;;;;;;4.88;2.20;;;30.50;81.30;;;;;;5136077;27;20042;-76
2022/08/21 08:46:43;;;;;;;4.90;2.17;;;30.20;80.30;;;;;;5140451;27;20042;-76
2022/08/21 08:49:18;;;;;;;3.80;2.22;;;29.80;76.80;;;;;;5120189;27;20080;-77
2022/08/21 08:52:14;;;;;;;6.53;2.40;;;30.10;79.80;;;;;;5122340;27;20054;-77
2022/08/21 08:55:04;;;;;;;3.35;1.90;;;30.40;77.20;;;;;;5123846;27;20150;-77
2022/08/21 08:57:31;;;;;;;6.25;2.20;;;30.70;78.30;;;;;;5127088;27;20050;-76
2022/08/21 09:00:04;;;;;;;3.42;1.30;;;30.20;79.40;;;;;;5134613;27;20685;-77
2022/08/21 09:02:30;;;;;;;6.22;1.73;;;29.90;78.40;;;;;;5133097;27;20074;-77
2022/08/21 09:04:56;;;;;;;11.73;2.45;;;30.10;77.40;;;;;;5138066;27;20054;-77
2022/08/21 09:07:46;;;;;;;4.72;1.80;;;29.90;77.50;;;;;;5129617;27;20830;-76
2022/08/21 09:10:18;;;;;;;5.43;1.85;;;30.00;77.10;;;;;;5133232;27;20050;-77
2022/08/21 09:13:02;;;;;;;4.63;1.92;;;30.50;78.80;;;;;;5132733;27;20047;-76
2022/08/21 09:15:44;;;;;;;2.22;1.30;;;30.60;78.40;;;;;;5129425;27;20053;-76
2022/08/21 09:18:25;;;;;;;5.85;1.55;;;30.20;75.00;;;;;;5112924;27;20055;-76
2022/08/21 09:21:09;;;;;;;2.40;1.48;;;30.20;76.90;;;;;;5131002;27;20377;-78
2022/08/21 09:23:48;;;;;;;4.05;1.67;;;30.30;75.10;;;;;;5106517;27;20063;-76
2022/08/21 09:26:17;;;;;;;3.33;1.50;;;30.40;76.00;;;;;;5129253;27;20410;-76
2022/08/21 09:28:44;;;;;;;3.88;1.65;;;30.50;76.20;;;;;;5121322;27;20147;-76
2022/08/21 09:31:32;;;;;;;5.88;1.90;;;30.50;77.30;;;;;;5132933;27;20038;-76
2022/08/21 09:34:23;;;;;;;5.72;1.70;;;30.60;75.90;;;;;;5113410;27;20139;-76
2022/08/21 09:36:50;;;;;;;5.35;1.92;;;30.80;75.90;;;;;;5135595;27;20119;-78
2022/08/21 09:39:32;;;;;;;9.40;1.70;;;30.90;74.40;;;;;;5124984;27;20042;-76
2022/08/21 09:42:01;;;;;;;2.72;1.75;;;31.10;74.00;;;;;;5131411;27;20081;-77
2022/08/21 09:44:31;;;;;;;4.15;1.80;;;31.20;75.20;;;;;;5116801;27;20047;-77
2022/08/21 09:46:57;;;;;;;6.10;2.28;;;31.20;76.00;;;;;;5132612;27;20046;-76
2022/08/21 09:49:37;;;;;;;6.35;1.50;;;31.00;77.10;;;;;;5135688;27;20051;-78
2022/08/21 09:52:06;;;;;;;4.20;1.55;;;30.60;74.80;;;;;;5128743;27;20042;-77
2022/08/21 09:54:40;;;;;;;3.92;1.50;;;30.50;77.10;;;;;;5118276;27;20046;-78
2022/08/21 09:59:53;;;;;;;3.80;1.80;;;30.30;75.90;;;;;;5131939;27;20047;-78
2022/08/21 10:02:31;;;;;;;3.72;1.77;;;30.40;76.60;;;;;;5132809;27;20043;-78
2022/08/21 10:05:03;;;;;;;5.53;2.00;;;30.60;76.60;;;;;;5132397;27;20035;-77
2022/08/21 10:07:30;;;;;;;;;;;30.90;75.60;;;;;;5136461;27;20699;-77
2022/08/21 10:10:29;;;;;;;5.90;2.45;;;30.30;75.40;;;;;;5115194;27;19929;-77
2022/08/21 10:13:10;;;;;;;4.88;2.00;;;30.30;76.70;;;;;;5127739;27;20089;-77
2022/08/21 10:15:58;;;;;;;3.92;1.95;;;30.60;77.70;;;;;;5131331;27;20138;-77
2022/08/21 10:18:56;;;;;;;6.60;2.20;;;30.20;76.50;;;;;;5131095;27;20081;-78
2022/08/21 10:21:30;;;;;;;4.55;2.25;;;30.10;77.30;;;;;;5095665;27;20082;-78
2022/08/21 10:24:13;;;;;;;4.90;1.88;;;29.60;78.00;;;;;;5136201;27;20491;-78
2022/08/21 10:27:00;;;;;;;5.88;2.75;;;28.70;78.50;;;;;;5133772;27;20816;-77
2022/08/21 10:29:49;;;;;;;4.50;2.05;;;27.60;80.00;;;;;;5133485;27;20854;-77
2022/08/21 10:32:50;;;;;;;5.40;2.10;;;27.00;81.20;;;;;;5135284;27;20179;-78
2022/08/21 10:35:33;;;;;;;4.72;1.75;;;26.50;82.10;;;;;;5099009;27;20692;-77
2022/08/21 10:38:36;;;;;;;6.53;2.25;;;26.50;82.10;;;;;;5117152;27;20838;-76
2022/08/21 10:41:13;;;;;;;5.63;2.17;;;26.30;81.40;;;;;;5134653;27;20049;-77
2022/08/21 10:44:26;;;;;;;5.82;2.03;;;26.10;83.90;;;;;;5134026;27;20051;-76
2022/08/21 10:47:08;;;;;;;4.35;1.60;;;27.10;83.90;;;;;;5132450;27;20050;-77
2022/08/21 10:49:40;;;;;;;5.90;2.30;;;28.00;81.90;;;;;;5116711;27;20043;-77
2022/08/21 10:52:30;;;;;;;3.60;1.80;;;28.80;81.30;;;;;;5116749;27;20042;-79
2022/08/21 10:55:19;;;;;;;4.55;1.70;;;28.80;79.70;;;;;;5132237;27;20070;-77
2022/08/21 10:57:54;;;;;;;6.45;1.73;;;28.40;80.00;;;;;;5136101;27;20138;-77
2022/08/21 11:00:23;;;;;;;2.20;1.35;;;28.00;79.90;;;;;;5133246;27;20341;-78
2022/08/21 11:03:00;;;;;;;5.72;1.75;;;27.80;80.30;;;;;;5133852;27;20070;-77
2022/08/21 11:05:32;;;;;;;3.65;1.70;;;27.60;80.40;;;;;;5135558;27;21193;-77
2022/08/21 11:08:27;;;;;;;3.80;1.80;;;27.30;80.10;;;;;;5116904;27;20089;-77
2022/08/21 11:11:24;;;;;;;4.05;1.50;;;27.10;79.20;;;;;;5119448;27;20127;-77
2022/08/21 11:13:59;;;;;;;3.00;1.52;;;27.00;80.70;;;;;;5113668;27;20050;-77
2022/08/21 11:16:39;;;;;;;4.20;1.60;;;27.30;79.90;;;;;;5137605;27;20042;-78
2022/08/21 11:19:15;;;;;;;5.40;3.28;;;27.40;78.60;;;;;;5133507;27;20386;-78
2022/08/21 11:22:13;;;;;;;6.90;1.83;;;27.30;79.40;;;;;;5133263;27;20035;-78
2022/08/21 11:25:08;;;;;;;7.28;1.70;;;27.10;80.00;;;;;;5131707;27;20051;-78
2022/08/21 11:27:46;;;;;;;4.25;2.22;;;26.80;79.80;;;;;;5136956;27;20047;-79
2022/08/21 11:30:14;;;;;;;3.95;1.60;;;26.50;79.10;;;;;;5129898;27;20074;-78
2022/08/21 11:33:00;;;;;;;8.80;2.00;;;26.30;79.80;;;;;;5133405;27;20104;-78
2022/08/21 11:35:26;;;;;;;5.88;1.70;;;26.20;80.40;;;;;;5130360;27;20066;-78
2022/08/21 11:38:01;;;;;;;2.85;1.70;;;26.00;81.10;;;;;;5135198;27;20143;-79
2022/08/21 11:40:53;;;;;;;2.83;1.80;;;25.80;81.80;;;;;;5133365;27;20145;-78
2022/08/21 11:43:52;;;;;;;2.05;1.70;;;25.70;83.70;;;;;;5131450;27;20039;-78
2022/08/21 11:46:30;;;;;;;4.80;1.63;;;25.60;83.90;;;;;;5120930;27;20058;-75
2022/08/21 11:49:23;;;;;;;8.20;2.05;;;25.40;83.90;;;;;;4745473;27;10000531;-74
2022/08/21 11:51:59;;;;;;;3.95;1.55;;;25.20;83.60;;;;;;5124186;27;20043;-76
2022/08/21 11:54:25;;;;;;;7.68;2.53;;;25.00;83.40;;;;;;5125891;27;20047;-74
2022/08/21 11:57:22;;;;;;;6.40;2.30;;;24.80;84.30;;;;;;5124003;27;20035;-74
2022/08/21 12:00:20;;;;;;;2.63;1.77;;;24.60;87.40;;;;;;5123276;27;20059;-74
2022/08/21 12:02:50;;;;;;;4.72;2.20;;;24.40;88.10;;;;;;5117398;27;20298;-73
2022/08/21 12:05:33;;;;;;;5.57;2.35;;;24.40;88.50;;;;;;5123631;27;20046;-73
2022/08/21 12:08:03;;;;;;;3.28;2.55;;;24.50;90.20;;;;;;5125709;27;20174;-74
2022/08/21 12:10:54;;;;;;;3.35;1.90;;;24.50;89.00;;;;;;5125324;27;20045;-73
2022/08/21 12:13:27;;;;;;;4.63;2.10;;;24.60;89.80;;;;;;5115756;27;20050;-74
2022/08/21 12:16:09;;;;;;;6.05;2.90;;;24.60;88.60;;;;;;5138753;27;20074;-74
2022/08/21 12:18:37;;;;;;;4.60;3.50;;;24.70;89.60;;;;;;5135411;27;20053;-81
2022/08/21 12:21:33;;;;;;;3.22;2.78;;;24.80;89.40;;;;;;5133855;27;20051;-83
2022/08/21 12:24:31;;;;;;;7.95;2.42;;;24.90;90.30;;;;;;5112314;27;20058;-84
2022/08/21 12:27:00;;;;;;;3.28;2.10;;;24.90;90.50;;;;;;5133007;27;20046;-80
2022/08/21 12:29:28;;;;;;;7.72;2.53;;;25.00;89.90;;;;;;5132527;27;20131;-79
2022/08/21 12:31:58;;;;;;;4.47;2.45;;;25.10;89.50;;;;;;5130027;27;20058;-82
2022/08/21 12:34:46;;;;;;;4.57;2.60;;;25.30;89.20;;;;;;5124591;27;20141;-84
2022/08/21 12:37:26;;;;;;;8.15;2.70;;;25.40;88.60;;;;;;5121647;27;20176;-74
2022/08/21 12:39:54;;;;;;;6.28;2.38;;;25.50;88.80;;;;;;5128657;27;20118;-74
2022/08/21 12:42:33;;;;;;;5.45;1.90;;;25.50;88.10;;;;;;5130293;27;20210;-75
2022/08/21 12:45:03;;;;;;;3.25;1.92;;;25.40;87.60;;;;;;5133242;27;20057;-75
2022/08/21 12:47:55;;;;;;;2.25;1.58;;;25.40;86.50;;;;;;5129092;27;20046;-74
2022/08/21 12:50:27;;;;;;;6.57;2.47;;;25.30;88.40;;;;;;5122469;27;20814;-74
2022/08/21 12:53:01;;;;;;;3.72;1.95;;;25.30;87.50;;;;;;5129984;27;20449;-73
2022/08/21 12:55:33;;;;;;;8.95;2.22;;;25.10;87.60;;;;;;5129364;27;20039;-71
2022/08/21 12:57:59;;;;;;;2.67;2.10;;;25.20;87.70;;;;;;5129397;27;20068;-72
2022/08/21 13:00:27;;;;;;;2.53;1.63;;;25.20;87.70;;;;;;5125783;27;20047;-72
2022/08/21 13:02:54;;;;;;;6.72;2.38;;;25.20;86.90;;;;;;5129474;27;20754;-73
2022/08/21 13:05:36;;;;;;;6.55;2.70;;;25.20;87.30;;;;;;5128249;27;20078;-73
2022/08/21 13:08:10;;;;;;;4.47;2.13;;;25.20;87.40;;;;;;5132359;27;20581;-74